METAR AND TAF INFORMATION
METAR FOR LCLK
ADDS - METARS form results

(0141 UTC 13 December 2018)
Data provider http://aviationweather.gov/metar/data/
 
METAR text: LCLK 130130Z 30008KT 9999 BKN060 12/06 Q1020 NOSIG
Conditions at: LCLK (LARNACA/LARNAX A, CY) observed 0130 UTC 13 December 2018
Temperature: 12.0°C (54°F)
Dewpoint: 6.0°C (43°F) [RH = 67%]
Pressure (altimeter): 30.12 inches Hg (1020.0 mb)
Winds: from the WNW (300 degrees) at 9 MPH (8 knots; 4.1 m/s)
Visibility: 6 or more miles (10+ km)
Ceiling: 6000 feet AGL
Clouds: broken clouds at 6000 feet AGL
Weather: no significant weather observed at this time

METAR text: LCLK 130100Z 31008KT 9999 SCT060 12/06 Q1020 NOSIG
Conditions at: LCLK (LARNACA/LARNAX A, CY) observed 0100 UTC 13 December 2018
Temperature: 12.0°C (54°F)
Dewpoint: 6.0°C (43°F) [RH = 67%]
Pressure (altimeter): 30.12 inches Hg (1020.0 mb)
Winds: from the NW (310 degrees) at 9 MPH (8 knots; 4.1 m/s)
Visibility: 6 or more miles (10+ km)
Ceiling: at least 12,000 feet AGL
Clouds: scattered clouds at 6000 feet AGL
Weather: no significant weather observed at this time

Forecast for: LCLK (LARNACA/LARNAX A, CY)
Text: TAF LCLK 122330Z 1300/1324 30009KT 9999 FEW025
Forecast period: 0000 to 0700 UTC 13 December 2018
Forecast type: FROM: standard forecast or significant change
Winds: from the WNW (300 degrees) at 10 MPH (9 knots; 4.6 m/s)
Visibility: 6 or more miles 10+ km)
Ceiling: at least 12,000 feet AGL
Clouds: few clouds at 2500 feet AGL
Weather: no significant weather forecast for this period
Text: BECMG 1307/1311 23014KT
Forecast period: 0700 to 1800 UTC 13 December 2018
Forecast type: BECOMING: Conditions expected to become as follows by 1100 UTC 13 December 2018
Winds: from the SW (230 degrees) at 16 MPH (14 knots; 7.2 m/s)
Visibility: 6 or more miles 10+ km)
Ceiling: at least 12,000 feet AGL
Clouds: few clouds at 2500 feet AGL
Weather: no significant weather forecast for this period
Text: BECMG 1318/1321 32007KT
Forecast period: 1800 UTC 13 December 2018 to 0000 UTC 14 December 2018
Forecast type: BECOMING: Conditions expected to become as follows by 2100 UTC 13 December 2018
Winds: from the NW (320 degrees) at 8 MPH (7 knots; 3.6 m/s)
Visibility: 6 or more miles 10+ km)
Ceiling: at least 12,000 feet AGL
Clouds: few clouds at 2500 feet AGL
Weather: no significant weather forecast for this period

 AIRPORT MAP

 RUNWAY INFORMATION
Runway 04 Runway length 9776 ft Runway width 148 ft
Runway elevation 11 ft Runway displaced threshold 0 ft Runway heading 45
Runway 22 Runway length 9776 ft Runway width 148 ft
Runway elevation 6 ft Runway displaced threshold 575 ft Runway heading 225

 AIRPORT FREQUENCIES
Type APP Name APP Frequency 121.2 MHZ
Type ATIS Name ATIS Frequency 126.55 MHZ
Type TWR Name TWR Frequency 119.4 MHZ

 AIRPORT NEAR NAVIGATION AIDS
Type VOR-DME Name Larnaca Frequency 112800 KHZ
Type NDB Name Larnaca Frequency 432 KHZ



Powered by Virtual Airlines Manager [v2.6.1]